Time;durP1;ratioP1;P1;durP2;ratioP2;P2;SDS_P1;SDS_P2;PMS_P1;PMS_P2;Temp;Humidity;BMP_temperature;BMP_pressure;BME280_temperature;BME280_humidity;BME280_pressure;Samples;Min_cycle;Max_cycle;Signal;HPM_P1;HPM_P2
2022/06/04 00:02:06;;;;;;;2.95;1.77;;;19.90;68.00;20.00;100727.00;;;;4969479;28;122068;-69
2022/06/04 00:04:32;;;;;;;3.58;1.83;;;19.90;68.30;20.00;100716.00;;;;4972442;28;92810;-69
2022/06/04 00:06:58;;;;;;;1.65;1.55;;;19.80;68.80;19.90;100712.00;;;;4986959;28;97490;-68
2022/06/04 00:09:28;;;;;;;3.55;1.60;;;19.80;69.00;19.90;100713.00;;;;4988896;28;91938;-68
2022/06/04 00:17:29;;;;;;;2.97;1.77;;;19.80;70.00;19.90;100707.00;;;;4988939;28;91953;-68
2022/06/04 00:19:54;;;;;;;1.42;1.33;;;19.70;70.40;19.90;100714.00;;;;4991647;28;92804;-68
2022/06/04 00:22:20;;;;;;;2.05;1.45;;;19.70;71.10;19.80;100719.00;;;;4991940;28;94240;-68
2022/06/04 00:24:46;;;;;;;1.50;1.10;;;19.70;72.00;19.70;100715.00;;;;4990093;28;122420;-68
2022/06/04 00:27:19;;;;;;;3.65;2.05;;;19.60;73.60;19.40;100718.00;;;;4957522;28;92274;-69
2022/06/04 00:29:45;;;;;;;1.63;1.52;;;19.40;75.90;19.10;100717.00;;;;4992590;28;92450;-69
2022/06/04 00:32:11;;;;;;;1.80;1.70;;;19.10;78.20;18.80;100716.00;;;;4991360;28;93575;-70
2022/06/04 00:34:37;;;;;;;2.35;1.80;;;18.80;81.40;18.50;100706.00;;;;4991024;28;93536;-68
2022/06/04 00:37:03;;;;;;;2.25;1.75;;;18.60;86.20;18.30;100709.00;;;;4991970;28;109701;-68
2022/06/04 00:39:29;;;;;;;1.80;1.42;;;18.30;90.00;18.10;100711.00;;;;4972097;28;92286;-70
2022/06/04 00:42:12;;;;;;;2.25;1.80;;;18.10;91.80;17.80;100703.00;;;;4972149;28;121704;-69
2022/06/04 00:45:51;;;;;;;2.00;1.88;;;17.90;93.40;17.60;100708.00;;;;4991278;28;93668;-68
2022/06/04 00:48:20;;;;;;;2.08;1.58;;;17.70;94.90;17.50;100701.00;;;;4991486;28;92405;-71
2022/06/04 00:50:46;;;;;;;3.60;2.17;;;17.50;96.70;17.40;100700.00;;;;4990123;28;92458;-73
2022/06/04 00:53:12;;;;;;;2.45;2.00;;;17.40;98.10;17.30;100695.00;;;;4997930;28;121577;-73
2022/06/04 00:56:31;;;;;;;1.58;1.48;;;17.30;99.80;17.10;100696.00;;;;5004996;28;92575;-73
2022/06/04 00:59:33;;;;;;;3.00;2.30;;;17.10;99.90;17.00;100699.00;;;;4983086;28;92805;-72
2022/06/04 01:02:39;;;;;;;4.32;2.38;;;17.00;99.90;16.90;100708.00;;;;4972923;28;98003;-73
2022/06/04 01:05:30;;;;;;;3.03;2.72;;;16.90;99.90;16.80;100709.00;;;;4991169;28;91817;-71
2022/06/04 01:08:29;;;;;;;2.97;2.13;;;16.90;99.90;16.80;100716.00;;;;4988710;28;93512;-71
2022/06/04 01:11:22;;;;;;;3.95;2.72;;;16.80;99.90;16.80;100713.00;;;;4989449;28;92669;-71
2022/06/04 01:14:28;;;;;;;3.83;2.72;;;16.80;99.90;16.80;100713.00;;;;4972245;28;93701;-72
2022/06/04 01:17:13;;;;;;;7.13;2.92;;;16.70;99.90;16.70;100713.00;;;;4972160;28;107185;-73
2022/06/04 01:20:14;;;;;;;3.17;2.88;;;16.70;99.90;16.60;100704.00;;;;4988223;28;94035;-78
2022/06/04 01:23:06;;;;;;;3.25;2.95;;;16.60;99.90;16.50;100701.00;;;;5004946;28;92539;-75
2022/06/04 01:26:06;;;;;;;5.75;3.05;;;16.50;99.90;16.40;100708.00;;;;5005883;28;92431;-71
2022/06/04 01:28:39;;;;;;;4.03;3.33;;;16.40;99.90;16.30;100711.00;;;;4989602;28;93089;-70
2022/06/04 01:31:08;;;;;;;4.72;3.63;;;16.30;99.90;16.30;100698.00;;;;5005887;28;112433;-70
2022/06/04 01:33:52;;;;;;;3.72;2.83;;;16.30;99.90;16.20;100696.00;;;;5005428;28;109817;-68
2022/06/04 01:36:52;;;;;;;5.13;3.63;;;16.20;99.90;16.20;100687.00;;;;5004770;28;92679;-68
2022/06/04 01:41:03;;;;;;;3.95;3.30;;;16.10;99.90;16.20;100687.00;;;;4989980;28;92532;-68
2022/06/04 01:42:23;;;;;;;2.72;2.40;;;16.10;99.90;16.20;100689.00;;;;5001609;28;92940;-68
2022/06/04 01:44:52;;;;;;;4.88;3.63;;;16.10;99.90;16.20;100686.00;;;;4989288;28;109136;-67
2022/06/04 01:47:29;;;;;;;4.65;3.67;;;16.10;99.90;16.20;100689.00;;;;4990215;28;108405;-67
2022/06/04 01:49:57;;;;;;;3.95;3.08;;;16.10;99.90;16.20;100681.00;;;;4980863;28;93533;-67
2022/06/04 01:52:40;;;;;;;6.32;3.80;;;16.10;99.90;16.10;100688.00;;;;4980282;28;93533;-67
2022/06/04 01:55:20;;;;;;;3.85;2.80;;;16.10;99.90;16.20;100685.00;;;;5004810;28;109219;-68
2022/06/04 01:58:00;;;;;;;4.97;3.78;;;16.10;99.90;16.20;100688.00;;;;5004934;28;92563;-67
2022/06/04 02:00:37;;;;;;;4.22;3.50;;;16.10;99.90;16.30;100696.00;;;;4991594;28;91844;-68
2022/06/04 02:03:14;;;;;;;4.88;3.28;;;16.20;99.90;16.30;100694.00;;;;4972300;28;92379;-68
2022/06/04 02:06:13;;;;;;;3.65;3.28;;;16.20;99.90;16.30;100698.00;;;;4972419;28;92514;-68
2022/06/04 02:08:49;;;;;;;4.13;3.65;;;16.20;99.90;16.40;100691.00;;;;4956880;28;93553;-67
2022/06/04 02:11:19;;;;;;;7.32;4.95;;;16.30;99.90;16.50;100683.00;;;;5005257;28;92602;-68
2022/06/04 02:13:49;;;;;;;5.95;4.18;;;16.30;99.90;16.50;100689.00;;;;4987348;28;114622;-68
2022/06/04 02:16:39;;;;;;;4.55;3.60;;;16.30;99.90;16.50;100682.00;;;;5006350;28;92801;-68
2022/06/04 02:19:05;;;;;;;4.57;3.78;;;16.40;99.90;16.50;100681.00;;;;5003798;28;98187;-68
2022/06/04 02:21:32;;;;;;;5.18;3.88;;;16.40;99.90;16.50;100679.00;;;;4989630;28;92493;-69
2022/06/04 02:23:59;;;;;;;5.75;4.93;;;16.40;99.90;16.60;100674.00;;;;5005192;28;92358;-68
2022/06/04 02:26:26;;;;;;;4.60;4.20;;;16.40;99.90;16.60;100674.00;;;;4989934;28;91234;-68
2022/06/04 02:28:53;;;;;;;6.07;4.43;;;16.40;99.90;16.60;100670.00;;;;4989443;28;92359;-69
2022/06/04 02:31:47;;;;;;;6.30;4.22;;;16.50;99.90;16.60;100676.00;;;;4989871;28;93931;-68
2022/06/04 02:34:34;;;;;;;4.93;3.78;;;16.50;99.90;16.50;100680.00;;;;4989022;28;110768;-68
2022/06/04 02:37:34;;;;;;;3.67;3.38;;;16.40;99.90;16.50;100691.00;;;;4988653;28;92483;-69
2022/06/04 02:40:40;;;;;;;3.35;3.05;;;16.40;99.90;16.40;100679.00;;;;4969471;28;92403;-70
2022/06/04 02:43:18;;;;;;;4.13;3.83;;;16.40;99.90;16.40;100672.00;;;;4988259;28;94992;-69
2022/06/04 02:46:17;;;;;;;6.40;4.18;;;16.30;99.90;16.30;100664.00;;;;5003353;28;110141;-69
2022/06/04 02:49:19;;;;;;;7.28;3.85;;;16.30;99.90;16.30;100672.00;;;;4968915;28;92131;-69
2022/06/04 02:51:51;;;;;;;7.80;5.03;;;16.30;99.90;16.30;100672.00;;;;4979053;28;93695;-69
2022/06/04 02:54:29;;;;;;;7.07;4.22;;;16.20;99.90;16.40;100669.00;;;;5010110;28;107504;-69
2022/06/04 02:56:58;;;;;;;5.85;4.05;;;16.20;99.90;16.40;100671.00;;;;5012170;28;96123;-69
2022/06/04 02:59:26;;;;;;;5.75;4.25;;;16.30;99.90;16.40;100666.00;;;;5011517;28;92637;-69
2022/06/04 03:01:57;;;;;;;4.05;3.75;;;16.30;99.90;16.40;100669.00;;;;5010990;28;94214;-67
2022/06/04 03:04:23;;;;;;;4.75;4.35;;;16.30;99.90;16.40;100678.00;;;;4995777;28;92487;-67
2022/06/04 03:06:49;;;;;;;5.53;4.35;;;16.30;99.90;16.40;100683.00;;;;4995654;28;110042;-67
2022/06/04 03:09:18;;;;;;;5.35;4.32;;;16.30;99.90;16.40;100691.00;;;;4996343;28;92439;-68
2022/06/04 03:11:49;;;;;;;4.88;4.07;;;16.30;99.90;16.40;100690.00;;;;4996530;28;92467;-68
2022/06/04 03:14:18;;;;;;;5.50;3.65;;;16.30;99.90;16.40;100694.00;;;;4996737;28;92604;-67
2022/06/04 03:17:12;;;;;;;4.45;3.90;;;16.30;99.90;16.40;100691.00;;;;4998745;28;93580;-67
2022/06/04 03:19:38;;;;;;;6.30;3.95;;;16.30;99.90;16.40;100690.00;;;;5011369;28;91997;-68
2022/06/04 03:22:05;;;;;;;5.00;4.50;;;16.30;99.90;16.50;100706.00;;;;4996531;28;92534;-68
2022/06/04 03:24:30;;;;;;;6.18;5.57;;;16.30;99.90;16.50;100705.00;;;;4994858;28;92815;-68
2022/06/04 03:26:56;;;;;;;4.60;4.20;;;16.40;99.90;16.50;100711.00;;;;4994464;28;122050;-68
2022/06/04 03:29:22;;;;;;;4.90;4.50;;;16.40;99.90;16.50;100701.00;;;;4995852;28;93732;-68
2022/06/04 03:31:48;;;;;;;5.18;4.50;;;16.40;99.90;16.50;100695.00;;;;5011532;28;92450;-69
2022/06/04 03:34:15;;;;;;;6.45;4.80;;;16.40;99.90;16.50;100694.00;;;;5010883;28;93663;-68
2022/06/04 03:36:41;;;;;;;7.25;4.35;;;16.40;99.90;16.50;100700.00;;;;4995617;28;92543;-68
2022/06/04 03:39:09;;;;;;;4.55;4.15;;;16.40;99.90;16.60;100696.00;;;;4995801;28;92614;-68
2022/06/04 03:41:36;;;;;;;7.38;4.50;;;16.40;99.90;16.60;100695.00;;;;4996158;28;92470;-68
2022/06/04 03:44:05;;;;;;;7.00;4.97;;;16.40;99.90;16.60;100692.00;;;;5012264;28;91950;-68
2022/06/04 03:46:31;;;;;;;8.30;4.72;;;16.50;99.90;16.60;100696.00;;;;4994440;28;117682;-67
2022/06/04 03:48:58;;;;;;;6.85;5.78;;;16.40;99.90;16.60;100692.00;;;;4995357;28;111293;-68
2022/06/04 03:51:26;;;;;;;6.57;4.78;;;16.40;99.90;16.60;100695.00;;;;5008416;28;106284;-68
2022/06/04 03:53:52;;;;;;;5.97;4.75;;;16.40;99.90;16.60;100697.00;;;;4975382;28;93256;-68
2022/06/04 03:56:19;;;;;;;5.65;4.80;;;16.40;99.90;16.60;100693.00;;;;4974874;28;114761;-68
2022/06/04 03:58:44;;;;;;;6.75;5.15;;;16.50;99.90;16.50;100684.00;;;;4974032;28;92447;-69
2022/06/04 04:01:36;;;;;;;7.40;5.72;;;16.40;99.90;16.50;100684.00;;;;4970778;28;107873;-68
2022/06/04 04:04:03;;;;;;;5.60;4.93;;;16.40;99.90;16.50;100681.00;;;;4968123;28;122521;-69
2022/06/04 04:06:32;;;;;;;6.60;5.07;;;16.40;99.90;16.50;100685.00;;;;4986199;28;92676;-68
2022/06/04 04:08:59;;;;;;;7.97;5.50;;;16.40;99.90;16.60;100672.00;;;;4971913;28;91252;-69
2022/06/04 04:11:27;;;;;;;8.10;5.82;;;16.40;99.90;16.60;100684.00;;;;4990257;28;103370;-68
2022/06/04 04:14:14;;;;;;;6.65;5.97;;;16.50;99.90;16.60;100678.00;;;;4984495;28;112257;-68
2022/06/04 04:16:39;;;;;;;7.72;5.25;;;16.50;99.90;16.70;100677.00;;;;4952191;28;121536;-69
2022/06/04 04:19:05;;;;;;;6.72;4.65;;;16.60;99.90;16.70;100673.00;;;;4971739;28;109992;-68
2022/06/04 04:21:40;;;;;;;6.32;4.85;;;16.60;99.90;16.80;100675.00;;;;4970640;28;106659;-69
2022/06/04 04:24:05;;;;;;;7.40;5.00;;;16.60;99.90;16.80;100681.00;;;;4970912;28;92555;-69
2022/06/04 04:26:31;;;;;;;6.28;5.35;;;16.60;99.90;16.80;100687.00;;;;4970970;28;120035;-69
2022/06/04 04:28:57;;;;;;;7.82;6.50;;;16.70;99.90;16.80;100681.00;;;;4990085;28;109427;-69
2022/06/04 04:31:22;;;;;;;6.53;5.00;;;16.70;99.90;16.90;100683.00;;;;4990634;28;106121;-69
2022/06/04 04:33:48;;;;;;;6.80;5.40;;;16.70;99.90;16.90;100675.00;;;;4991556;28;121291;-68
2022/06/04 04:36:14;;;;;;;6.03;5.47;;;16.80;99.90;16.90;100674.00;;;;4990473;28;107675;-68
2022/06/04 04:38:40;;;;;;;6.18;5.32;;;16.80;99.90;17.00;100676.00;;;;4991279;28;109538;-68
2022/06/04 04:41:31;;;;;;;6.18;4.95;;;16.80;99.90;16.90;100667.00;;;;4970002;28;107718;-68
2022/06/04 04:43:57;;;;;;;8.40;6.55;;;16.80;99.90;17.00;100672.00;;;;4998667;28;123909;-68
2022/06/04 04:46:23;;;;;;;7.63;5.82;;;16.80;99.90;17.00;100675.00;;;;4990064;28;121346;-69
2022/06/04 04:48:49;;;;;;;6.15;5.38;;;16.90;99.90;17.00;100678.00;;;;5005600;28;109402;-68
2022/06/04 04:51:20;;;;;;;5.38;4.97;;;16.90;99.90;17.00;100670.00;;;;4992947;28;92440;-68
2022/06/04 04:53:47;;;;;;;4.38;3.95;;;16.90;99.90;17.10;100676.00;;;;4972599;28;93529;-68
2022/06/04 04:56:18;;;;;;;8.00;5.63;;;16.90;99.90;17.10;100692.00;;;;4991330;28;93346;-68
2022/06/04 04:58:44;;;;;;;7.45;4.78;;;17.00;99.90;17.10;100690.00;;;;4957657;28;91613;-68
2022/06/04 05:01:19;;;;;;;7.07;5.07;;;17.00;99.90;17.10;100680.00;;;;4990227;28;107787;-67
2022/06/04 05:03:45;;;;;;;6.32;5.10;;;17.00;99.90;17.10;100680.00;;;;4991043;28;92619;-68
2022/06/04 05:06:14;;;;;;;6.60;6.00;;;17.00;99.90;17.10;100685.00;;;;5004278;28;122753;-68
2022/06/04 05:08:40;;;;;;;9.07;6.20;;;17.00;99.90;17.10;100689.00;;;;5006069;28;92631;-68
2022/06/04 05:11:12;;;;;;;12.68;5.50;;;17.00;99.90;17.10;100687.00;;;;4990600;28;107238;-67
2022/06/04 05:13:38;;;;;;;6.70;6.10;;;17.00;99.90;17.10;100685.00;;;;4988221;28;104376;-67
2022/06/04 05:16:04;;;;;;;6.45;4.80;;;17.00;99.90;17.10;100683.00;;;;4989948;28;121529;-68
2022/06/04 05:18:30;;;;;;;6.35;5.50;;;17.00;99.90;17.20;100694.00;;;;4991985;28;92378;-67
2022/06/04 05:21:19;;;;;;;6.93;5.70;;;17.10;99.90;17.20;100689.00;;;;4991401;28;92517;-67
2022/06/04 05:23:46;;;;;;;8.32;6.38;;;17.10;99.90;17.20;100694.00;;;;4985101;28;93024;-67
2022/06/04 05:26:12;;;;;;;7.57;6.53;;;17.10;99.90;17.30;100700.00;;;;5005151;28;109515;-66
2022/06/04 05:28:37;;;;;;;6.03;5.43;;;17.10;99.90;17.30;100704.00;;;;5003444;28;110266;-67
2022/06/04 05:31:03;;;;;;;8.55;6.10;;;17.20;99.90;17.30;100698.00;;;;5000425;28;108648;-66
2022/06/04 05:33:29;;;;;;;9.23;6.38;;;17.20;99.90;17.40;100713.00;;;;4999532;28;119664;-66
2022/06/04 05:35:55;;;;;;;6.30;5.65;;;17.20;99.90;17.40;100708.00;;;;5002535;28;121302;-67
2022/06/04 05:38:21;;;;;;;9.77;6.35;;;17.30;99.90;17.40;100715.00;;;;4997982;28;91929;-67
2022/06/04 05:40:46;;;;;;;8.00;6.00;;;17.30;99.90;17.40;100706.00;;;;5005882;28;93117;-67
2022/06/04 05:43:12;;;;;;;11.35;5.28;;;17.30;99.90;17.40;100719.00;;;;4993763;28;93039;-67
2022/06/04 05:45:38;;;;;;;6.63;5.47;;;17.30;99.90;17.40;100719.00;;;;5004586;28;121369;-67
2022/06/04 05:48:09;;;;;;;6.82;5.82;;;17.30;99.90;17.50;100716.00;;;;5003696;28;91669;-67
2022/06/04 05:50:34;;;;;;;7.25;5.15;;;17.30;99.90;17.50;100716.00;;;;5000963;28;92329;-67
2022/06/04 05:53:00;;;;;;;11.45;5.47;;;17.30;99.90;17.50;100717.00;;;;4998115;28;121816;-67
2022/06/04 05:55:26;;;;;;;7.70;6.28;;;17.40;99.90;17.50;100707.00;;;;5004038;28;111611;-67
2022/06/04 05:57:51;;;;;;;5.72;4.70;;;17.40;99.90;17.50;100721.00;;;;5000735;28;92637;-67
2022/06/04 06:00:17;;;;;;;9.15;5.65;;;17.40;99.90;17.60;100727.00;;;;4973218;28;106344;-67
2022/06/04 06:02:43;;;;;;;6.93;4.65;;;17.40;99.90;17.60;100733.00;;;;4996274;28;112221;-67
2022/06/04 06:05:08;;;;;;;8.57;5.93;;;17.50;99.90;17.70;100724.00;;;;5003262;28;121294;-67
2022/06/04 06:07:34;;;;;;;8.20;5.75;;;17.60;99.90;17.70;100733.00;;;;5002477;28;107890;-66
2022/06/04 06:10:00;;;;;;;7.45;5.78;;;17.60;99.90;17.80;100733.00;;;;4987336;28;109550;-66
2022/06/04 06:12:26;;;;;;;6.75;5.72;;;17.60;99.90;17.90;100733.00;;;;4998720;28;92790;-65
2022/06/04 06:14:51;;;;;;;5.40;4.50;;;17.70;99.90;17.90;100735.00;;;;5004150;28;114069;-66
2022/06/04 06:17:17;;;;;;;7.70;6.05;;;17.80;99.90;18.00;100745.00;;;;5004153;28;109290;-66
2022/06/04 06:19:43;;;;;;;8.82;6.28;;;17.80;99.90;18.00;100738.00;;;;4999698;28;109191;-65
2022/06/04 06:22:08;;;;;;;6.88;5.75;;;17.90;99.90;18.10;100744.00;;;;4999086;28;122318;-66
2022/06/04 06:24:34;;;;;;;7.47;6.25;;;17.90;99.90;18.10;100750.00;;;;4992530;28;123290;-66
2022/06/04 06:27:00;;;;;;;6.15;5.30;;;17.90;99.90;18.10;100745.00;;;;5005371;28;92389;-66
2022/06/04 06:29:30;;;;;;;4.97;4.57;;;18.00;99.90;18.20;100748.00;;;;4996070;28;92140;-66
2022/06/04 06:31:58;;;;;;;5.68;5.18;;;18.10;99.90;18.30;100738.00;;;;4998989;28;116627;-66
2022/06/04 06:34:24;;;;;;;6.00;5.50;;;18.20;99.90;18.40;100747.00;;;;4996479;28;92562;-66
2022/06/04 06:36:50;;;;;;;5.47;4.80;;;18.20;99.90;18.50;100741.00;;;;4995893;28;109443;-65
2022/06/04 06:39:16;;;;;;;7.00;5.60;;;18.30;99.90;18.60;100741.00;;;;5000866;28;100484;-66
2022/06/04 06:41:42;;;;;;;6.35;4.70;;;18.40;99.90;18.60;100746.00;;;;5004461;28;92488;-66
2022/06/04 06:44:11;;;;;;;6.28;4.82;;;18.40;99.90;18.70;100736.00;;;;4995089;28;123617;-66
2022/06/04 06:46:44;;;;;;;4.95;4.47;;;18.50;99.90;18.70;100744.00;;;;5002680;28;92494;-66
2022/06/04 06:49:23;;;;;;;5.10;4.25;;;18.50;99.90;18.80;100754.00;;;;4996954;28;100134;-66
2022/06/04 06:51:59;;;;;;;5.85;4.70;;;18.60;99.90;18.80;100746.00;;;;5005343;28;95977;-66
2022/06/04 06:54:33;;;;;;;8.30;4.80;;;18.60;99.90;18.90;100751.00;;;;4992223;28;93553;-66
2022/06/04 06:57:10;;;;;;;4.65;4.20;;;18.70;99.90;18.90;100753.00;;;;5004433;28;92487;-65
2022/06/04 06:59:37;;;;;;;4.70;4.28;;;18.80;99.90;19.00;100752.00;;;;4990351;28;99427;-65
2022/06/04 07:02:04;;;;;;;5.90;3.83;;;18.80;99.90;19.00;100753.00;;;;5003319;28;101926;-64
2022/06/04 07:04:30;;;;;;;4.43;4.03;;;18.90;99.90;19.10;100757.00;;;;5001816;28;92543;-65
2022/06/04 07:07:03;;;;;;;5.13;4.00;;;18.90;99.90;19.10;100765.00;;;;5003364;28;111112;-65
2022/06/04 07:09:41;;;;;;;4.45;3.40;;;19.00;99.90;19.20;100770.00;;;;4990716;28;94016;-64
2022/06/04 07:12:12;;;;;;;5.45;3.97;;;19.10;99.90;19.20;100760.00;;;;5000154;28;93389;-64
2022/06/04 07:14:38;;;;;;;4.13;3.72;;;19.10;99.90;19.20;100770.00;;;;4993207;28;93586;-64
2022/06/04 07:17:09;;;;;;;5.95;4.25;;;19.10;99.90;19.20;100770.00;;;;4997573;28;110128;-64
2022/06/04 07:19:35;;;;;;;5.10;4.60;;;19.10;99.90;19.20;100779.00;;;;4985054;28;92305;-64
2022/06/04 07:22:02;;;;;;;5.30;3.67;;;19.10;99.90;19.20;100779.00;;;;5003878;28;104488;-65
2022/06/04 07:24:27;;;;;;;4.75;4.20;;;19.40;99.90;19.20;100783.00;;;;4997528;28;109467;-65
2022/06/04 07:26:53;;;;;;;3.72;3.38;;;19.10;99.90;19.20;100789.00;;;;5004127;28;91691;-65
2022/06/04 07:29:35;;;;;;;4.35;3.95;;;19.10;99.90;19.20;100784.00;;;;4995811;28;94970;-64
2022/06/04 07:32:02;;;;;;;4.55;4.07;;;19.10;99.90;19.20;100797.00;;;;4990446;28;92664;-65
2022/06/04 07:34:27;;;;;;;6.07;4.82;;;19.10;99.90;19.20;100794.00;;;;4997808;28;112097;-65
2022/06/04 07:36:53;;;;;;;4.82;3.67;;;19.10;99.90;19.20;100799.00;;;;5007690;28;92538;-65
2022/06/04 07:39:19;;;;;;;5.90;4.75;;;19.10;99.90;19.20;100805.00;;;;4997816;28;108586;-65
2022/06/04 07:42:01;;;;;;;4.03;2.95;;;19.00;99.90;19.10;100800.00;;;;5004250;28;120489;-65
2022/06/04 07:44:27;;;;;;;4.95;4.35;;;19.00;99.90;19.10;100803.00;;;;5006094;28;115466;-64
2022/06/04 07:46:56;;;;;;;6.95;3.60;;;19.00;99.90;19.20;100807.00;;;;5007546;28;92404;-65
2022/06/04 07:49:23;;;;;;;5.03;4.47;;;19.00;99.90;19.20;100815.00;;;;4991784;28;92318;-65
2022/06/04 07:51:50;;;;;;;7.72;5.53;;;19.10;99.90;19.20;100813.00;;;;5005032;28;92493;-65
2022/06/04 07:54:28;;;;;;;4.72;4.00;;;19.10;99.90;19.10;100813.00;;;;5006423;28;92750;-65
2022/06/04 07:56:54;;;;;;;4.82;4.18;;;19.00;99.90;19.10;100824.00;;;;5007198;28;92289;-66
2022/06/04 07:59:20;;;;;;;6.72;5.13;;;19.00;99.90;19.00;100819.00;;;;4993415;28;93645;-66
2022/06/04 08:01:46;;;;;;;5.05;4.22;;;19.00;99.90;19.00;100818.00;;;;5000638;28;93490;-66
2022/06/04 08:04:12;;;;;;;5.00;3.83;;;18.90;99.90;19.00;100821.00;;;;5004768;28;106399;-66
2022/06/04 08:06:38;;;;;;;6.45;4.68;;;18.80;99.90;18.90;100832.00;;;;5006668;28;94496;-66
2022/06/04 08:09:04;;;;;;;7.57;5.05;;;18.80;99.90;18.90;100827.00;;;;5001933;28;92372;-67
2022/06/04 08:11:33;;;;;;;5.22;4.32;;;18.80;99.90;18.90;100828.00;;;;4980444;28;93350;-66
2022/06/04 08:14:10;;;;;;;8.00;4.68;;;18.80;99.90;18.90;100830.00;;;;4999645;28;93363;-66
2022/06/04 08:16:41;;;;;;;6.05;4.85;;;18.80;99.90;18.90;100838.00;;;;5002633;28;91619;-66
2022/06/04 08:19:24;;;;;;;7.32;4.82;;;18.70;99.90;18.80;100844.00;;;;5000221;28;98205;-67
2022/06/04 08:21:52;;;;;;;4.15;3.75;;;18.80;99.90;18.80;100839.00;;;;4996725;28;95979;-66
2022/06/04 08:24:18;;;;;;;5.28;4.78;;;18.70;99.90;18.80;100844.00;;;;5003366;28;93365;-66
2022/06/04 08:26:47;;;;;;;5.35;4.28;;;18.70;99.90;18.80;100851.00;;;;5000548;28;92771;-66
2022/06/04 08:29:14;;;;;;;3.58;3.28;;;18.60;99.90;18.80;100848.00;;;;5006553;28;92687;-65
2022/06/04 08:31:40;;;;;;;8.07;4.35;;;18.60;99.90;18.70;100846.00;;;;4995692;28;93204;-66
2022/06/04 08:34:09;;;;;;;6.05;3.85;;;18.60;99.90;18.70;100861.00;;;;4983073;28;95111;-66
2022/06/04 08:36:35;;;;;;;5.22;4.10;;;18.60;99.90;18.70;100856.00;;;;5001149;28;109773;-66
2022/06/04 08:39:02;;;;;;;4.65;4.13;;;18.50;99.90;18.60;100859.00;;;;5002726;28;92528;-65
2022/06/04 08:41:55;;;;;;;3.97;3.58;;;18.50;99.90;18.50;100863.00;;;;5005384;28;93070;-66
2022/06/04 08:44:35;;;;;;;5.35;4.85;;;18.40;99.90;18.50;100873.00;;;;4998143;28;92601;-66
2022/06/04 08:47:23;;;;;;;11.60;4.40;;;18.40;99.90;18.40;100874.00;;;;5005862;28;92594;-66
2022/06/04 08:49:58;;;;;;;5.07;4.22;;;18.30;99.90;18.30;100876.00;;;;4986393;28;93280;-66
2022/06/04 08:52:40;;;;;;;5.35;4.65;;;18.30;99.90;18.30;100877.00;;;;4978933;28;114721;-66
2022/06/04 08:58:48;;;;;;;6.68;4.53;;;18.20;99.90;18.20;100886.00;;;;4988084;28;92434;-66
2022/06/04 09:01:32;;;;;;;4.88;4.18;;;18.10;99.90;18.20;100879.00;;;;4992174;28;93450;-66
2022/06/04 09:04:28;;;;;;;5.57;4.78;;;18.10;99.90;18.20;100883.00;;;;4987798;28;93642;-66
2022/06/04 09:07:11;;;;;;;5.13;4.63;;;18.20;99.90;18.30;100884.00;;;;5001665;28;92311;-66
2022/06/04 09:10:11;;;;;;;5.65;4.68;;;18.20;99.90;18.40;100891.00;;;;4984937;28;100332;-66
2022/06/04 09:12:54;;;;;;;6.05;5.35;;;18.20;99.90;18.40;100891.00;;;;5003229;28;92378;-66
2022/06/04 09:15:42;;;;;;;8.45;4.93;;;18.30;99.90;18.40;100890.00;;;;4972876;28;92643;-65
2022/06/04 09:18:22;;;;;;;5.28;4.47;;;18.30;99.90;18.50;100890.00;;;;5001146;28;107526;-65
2022/06/04 09:20:54;;;;;;;6.38;5.28;;;18.30;99.90;18.50;100888.00;;;;4987991;28;93030;-65
2022/06/04 09:23:42;;;;;;;6.80;4.93;;;18.30;99.90;18.50;100892.00;;;;4998023;28;92531;-64
2022/06/04 09:26:14;;;;;;;6.43;4.70;;;18.40;99.90;18.50;100894.00;;;;4976728;28;92824;-64
2022/06/04 09:28:57;;;;;;;11.30;4.28;;;18.40;99.90;18.50;100902.00;;;;4999943;28;117740;-65
2022/06/04 09:31:50;;;;;;;10.65;6.07;;;18.40;99.90;18.50;100907.00;;;;5001485;28;92323;-65
2022/06/04 09:34:32;;;;;;;5.93;5.32;;;18.40;99.90;18.50;100909.00;;;;5004949;28;92592;-65
2022/06/04 09:36:59;;;;;;;5.78;4.97;;;18.40;99.90;18.60;100905.00;;;;4976650;28;99636;-65
2022/06/04 09:39:38;;;;;;;5.15;4.65;;;18.40;99.90;18.60;100915.00;;;;4979792;28;92438;-65
2022/06/04 09:42:23;;;;;;;5.25;4.43;;;18.40;99.90;18.60;100910.00;;;;5005132;28;92394;-65
2022/06/04 09:45:02;;;;;;;6.35;4.13;;;18.50;99.90;18.60;100899.00;;;;4994062;28;93535;-65
2022/06/04 09:47:34;;;;;;;6.15;5.35;;;18.50;99.90;18.70;100901.00;;;;5002117;28;92582;-65
2022/06/04 09:50:16;;;;;;;4.72;4.32;;;18.50;99.90;18.80;100907.00;;;;5002593;28;93491;-65
2022/06/04 09:52:46;;;;;;;5.03;4.53;;;18.60;99.90;18.90;100901.00;;;;4982886;28;105158;-64
2022/06/04 09:55:22;;;;;;;4.10;3.75;;;18.70;99.90;19.00;100906.00;;;;5001180;28;92605;-64
2022/06/04 09:58:07;;;;;;;5.05;4.50;;;18.80;99.90;19.10;100906.00;;;;4998788;28;93633;-64
2022/06/04 10:01:01;;;;;;;8.60;4.85;;;18.90;99.90;19.30;100909.00;;;;4998447;28;92483;-64
2022/06/04 10:03:38;;;;;;;6.00;5.10;;;19.00;99.90;19.50;100905.00;;;;5005833;28;91490;-65
2022/06/04 10:06:16;;;;;;;5.57;3.90;;;19.20;99.90;19.60;100905.00;;;;4979018;28;92744;-64
2022/06/04 10:12:06;;;;;;;3.88;3.42;;;19.60;99.90;20.00;100921.00;;;;5001743;28;93297;-65
2022/06/04 10:14:38;;;;;;;4.88;4.20;;;19.70;99.90;20.10;100918.00;;;;5001845;28;92537;-65
2022/06/04 10:17:16;;;;;;;5.75;4.65;;;19.90;99.90;20.30;100912.00;;;;4979720;28;92460;-64
2022/06/04 10:19:55;;;;;;;3.80;3.42;;;20.00;99.90;20.40;100919.00;;;;4995296;28;94101;-65
2022/06/04 10:22:22;;;;;;;4.05;3.75;;;20.20;99.90;20.50;100912.00;;;;5005026;28;92750;-64
2022/06/04 10:24:57;;;;;;;4.63;4.22;;;20.20;99.90;20.70;100920.00;;;;4986537;28;92373;-64
2022/06/04 10:28:10;;;;;;;5.05;3.92;;;20.40;99.90;20.80;100916.00;;;;4997617;28;92123;-65
2022/06/04 10:31:07;;;;;;;5.68;3.60;;;20.50;99.90;20.90;100917.00;;;;5007735;28;92018;-65
2022/06/04 10:33:52;;;;;;;8.10;4.05;;;20.60;99.90;21.00;100919.00;;;;5004356;28;107966;-64
2022/06/04 10:36:56;;;;;;;6.03;4.22;;;20.80;99.90;21.20;100922.00;;;;4984042;28;92283;-64
2022/06/04 10:39:54;;;;;;;3.38;2.97;;;20.90;99.90;21.40;100921.00;;;;4972527;28;93530;-65
2022/06/04 10:42:48;;;;;;;4.13;3.42;;;21.00;99.90;21.50;100925.00;;;;4999226;28;108032;-64
2022/06/04 10:45:32;;;;;;;4.15;3.75;;;21.20;99.90;21.70;100928.00;;;;4993239;28;92548;-65
2022/06/04 10:48:08;;;;;;;3.45;2.78;;;21.40;99.90;21.90;100928.00;;;;4993802;28;92786;-65
2022/06/04 10:54:07;;;;;;;4.60;3.53;;;21.70;99.90;22.00;100922.00;;;;4996003;28;92554;-64
2022/06/04 10:56:45;;;;;;;3.22;2.90;;;21.80;99.90;22.20;100924.00;;;;4994382;28;92661;-65
2022/06/04 10:59:38;;;;;;;4.22;3.55;;;21.80;99.90;22.30;100929.00;;;;5001449;28;92119;-65
2022/06/04 11:02:23;;;;;;;6.95;6.20;;;22.00;99.90;22.40;100925.00;;;;4986004;28;100375;-65
2022/06/04 11:04:58;;;;;;;8.18;3.05;;;22.10;99.90;22.60;100914.00;;;;4975223;28;92924;-64
2022/06/04 11:07:53;;;;;;;5.18;3.53;;;22.30;99.90;22.80;100924.00;;;;5007561;28;94056;-63
2022/06/04 11:10:25;;;;;;;4.10;2.90;;;22.40;99.90;22.90;100927.00;;;;5008367;28;92657;-64
2022/06/04 11:13:17;;;;;;;3.95;3.00;;;22.60;99.90;22.90;100923.00;;;;4988403;28;92664;-64
2022/06/04 11:15:51;;;;;;;6.63;3.13;;;22.60;99.90;22.90;100931.00;;;;4999112;28;93302;-64
2022/06/04 11:18:25;;;;;;;2.53;2.30;;;22.70;99.90;22.90;100925.00;;;;5001257;28;114504;-64
2022/06/04 11:21:03;;;;;;;2.97;2.30;;;22.70;99.90;22.90;100925.00;;;;4989733;28;92004;-64
2022/06/04 11:23:55;;;;;;;2.78;2.33;;;22.70;99.90;22.90;100923.00;;;;5005370;28;92477;-65
2022/06/04 11:26:50;;;;;;;3.67;2.53;;;22.60;99.90;22.80;100926.00;;;;4989189;28;91989;-64
2022/06/04 11:29:17;;;;;;;2.47;2.28;;;22.60;99.90;22.80;100930.00;;;;4962056;28;93217;-64
2022/06/04 11:32:46;;;;;;;3.28;2.35;;;22.60;99.90;22.70;100939.00;;;;4983708;28;92638;-64
2022/06/04 11:35:30;;;;;;;3.58;2.78;;;22.60;99.90;22.70;100948.00;;;;4975017;28;93014;-64